sensor_id;sensor_type;location;lat;lon;timestamp;P1;durP1;ratioP1;P2;durP2;ratioP2
74593;SDS011;63097;51.872;4.460;2023-07-20T00:00:57;6.93;;;3.70;;
74593;SDS011;63097;51.872;4.460;2023-07-20T00:03:22;6.78;;;3.20;;
74593;SDS011;63097;51.872;4.460;2023-07-20T00:05:48;6.90;;;2.70;;
74593;SDS011;63097;51.872;4.460;2023-07-20T00:08:13;8.45;;;3.17;;
74593;SDS011;63097;51.872;4.460;2023-07-20T00:10:40;7.03;;;3.05;;
74593;SDS011;63097;51.872;4.460;2023-07-20T00:13:05;6.78;;;3.08;;
74593;SDS011;63097;51.872;4.460;2023-07-20T00:15:31;5.55;;;2.47;;
74593;SDS011;63097;51.872;4.460;2023-07-20T00:17:56;6.93;;;2.33;;
74593;SDS011;63097;51.872;4.460;2023-07-20T00:20:23;5.45;;;2.35;;
74593;SDS011;63097;51.872;4.460;2023-07-20T00:22:49;6.35;;;2.60;;
74593;SDS011;63097;51.872;4.460;2023-07-20T00:25:14;8.90;;;2.60;;
74593;SDS011;63097;51.872;4.460;2023-07-20T00:27:39;11.23;;;2.40;;
74593;SDS011;63097;51.872;4.460;2023-07-20T00:30:05;7.30;;;2.55;;
74593;SDS011;63097;51.872;4.460;2023-07-20T00:32:31;5.55;;;2.35;;
74593;SDS011;63097;51.872;4.460;2023-07-20T00:34:56;7.68;;;2.60;;
74593;SDS011;63097;51.872;4.460;2023-07-20T00:37:21;8.95;;;2.90;;
74593;SDS011;63097;51.872;4.460;2023-07-20T00:39:47;15.30;;;4.15;;
74593;SDS011;63097;51.872;4.460;2023-07-20T00:42:12;8.48;;;3.65;;
74593;SDS011;63097;51.872;4.460;2023-07-20T00:44:37;7.60;;;2.63;;
74593;SDS011;63097;51.872;4.460;2023-07-20T00:47:03;6.35;;;3.25;;
74593;SDS011;63097;51.872;4.460;2023-07-20T00:49:29;7.93;;;3.60;;
74593;SDS011;63097;51.872;4.460;2023-07-20T00:51:54;8.65;;;3.33;;
74593;SDS011;63097;51.872;4.460;2023-07-20T00:54:20;8.10;;;4.00;;
74593;SDS011;63097;51.872;4.460;2023-07-20T00:56:45;12.45;;;5.15;;
74593;SDS011;63097;51.872;4.460;2023-07-20T00:59:11;6.03;;;3.80;;
74593;SDS011;63097;51.872;4.460;2023-07-20T01:01:37;13.40;;;4.00;;
74593;SDS011;63097;51.872;4.460;2023-07-20T01:04:03;6.43;;;3.92;;
74593;SDS011;63097;51.872;4.460;2023-07-20T01:09:21;13.90;;;3.90;;
74593;SDS011;63097;51.872;4.460;2023-07-20T01:14:18;8.60;;;3.95;;
74593;SDS011;63097;51.872;4.460;2023-07-20T01:16:43;8.70;;;4.85;;
74593;SDS011;63097;51.872;4.460;2023-07-20T01:19:09;8.77;;;4.40;;
74593;SDS011;63097;51.872;4.460;2023-07-20T01:21:37;10.18;;;4.25;;
74593;SDS011;63097;51.872;4.460;2023-07-20T01:32:26;6.90;;;2.72;;
74593;SDS011;63097;51.872;4.460;2023-07-20T01:34:54;3.70;;;2.38;;
74593;SDS011;63097;51.872;4.460;2023-07-20T01:37:23;2.83;;;1.65;;
74593;SDS011;63097;51.872;4.460;2023-07-20T01:39:51;7.18;;;2.20;;
74593;SDS011;63097;51.872;4.460;2023-07-20T01:42:17;5.00;;;1.58;;
74593;SDS011;63097;51.872;4.460;2023-07-20T01:44:43;4.10;;;1.80;;
74593;SDS011;63097;51.872;4.460;2023-07-20T01:47:08;3.63;;;1.95;;
74593;SDS011;63097;51.872;4.460;2023-07-20T01:49:33;6.97;;;2.58;;
74593;SDS011;63097;51.872;4.460;2023-07-20T01:51:58;6.80;;;2.75;;
74593;SDS011;63097;51.872;4.460;2023-07-20T01:54:24;4.55;;;2.90;;
74593;SDS011;63097;51.872;4.460;2023-07-20T01:56:49;6.13;;;2.92;;
74593;SDS011;63097;51.872;4.460;2023-07-20T01:59:14;7.47;;;3.22;;
74593;SDS011;63097;51.872;4.460;2023-07-20T02:01:40;10.70;;;3.08;;
74593;SDS011;63097;51.872;4.460;2023-07-20T02:04:05;8.98;;;2.75;;
74593;SDS011;63097;51.872;4.460;2023-07-20T02:06:31;7.97;;;2.65;;
74593;SDS011;63097;51.872;4.460;2023-07-20T02:08:56;4.78;;;1.92;;
74593;SDS011;63097;51.872;4.460;2023-07-20T02:11:21;5.40;;;1.77;;
74593;SDS011;63097;51.872;4.460;2023-07-20T02:13:47;1.77;;;1.05;;
74593;SDS011;63097;51.872;4.460;2023-07-20T02:16:12;5.97;;;1.42;;
74593;SDS011;63097;51.872;4.460;2023-07-20T02:18:37;3.47;;;1.40;;
74593;SDS011;63097;51.872;4.460;2023-07-20T02:21:03;3.35;;;1.50;;
74593;SDS011;63097;51.872;4.460;2023-07-20T02:23:28;5.30;;;1.45;;
74593;SDS011;63097;51.872;4.460;2023-07-20T02:25:53;3.33;;;1.25;;
74593;SDS011;63097;51.872;4.460;2023-07-20T02:28:19;2.78;;;1.35;;
74593;SDS011;63097;51.872;4.460;2023-07-20T02:30:44;2.88;;;1.38;;
74593;SDS011;63097;51.872;4.460;2023-07-20T02:33:09;6.70;;;1.30;;
74593;SDS011;63097;51.872;4.460;2023-07-20T02:35:35;1.52;;;1.08;;
74593;SDS011;63097;51.872;4.460;2023-07-20T02:38:00;1.75;;;1.13;;
74593;SDS011;63097;51.872;4.460;2023-07-20T02:40:25;3.25;;;1.60;;
74593;SDS011;63097;51.872;4.460;2023-07-20T02:42:51;3.65;;;1.88;;
74593;SDS011;63097;51.872;4.460;2023-07-20T02:45:16;5.32;;;1.77;;
74593;SDS011;63097;51.872;4.460;2023-07-20T02:47:41;4.15;;;1.63;;
74593;SDS011;63097;51.872;4.460;2023-07-20T02:50:07;4.05;;;1.40;;
74593;SDS011;63097;51.872;4.460;2023-07-20T02:52:33;12.18;;;2.42;;
74593;SDS011;63097;51.872;4.460;2023-07-20T02:54:58;2.42;;;1.30;;
74593;SDS011;63097;51.872;4.460;2023-07-20T02:57:23;4.22;;;1.33;;
74593;SDS011;63097;51.872;4.460;2023-07-20T02:59:49;3.25;;;1.35;;
74593;SDS011;63097;51.872;4.460;2023-07-20T03:02:14;1.95;;;1.38;;
74593;SDS011;63097;51.872;4.460;2023-07-20T03:04:39;2.13;;;1.10;;
74593;SDS011;63097;51.872;4.460;2023-07-20T03:07:05;7.50;;;2.10;;
74593;SDS011;63097;51.872;4.460;2023-07-20T03:09:31;2.58;;;1.20;;
74593;SDS011;63097;51.872;4.460;2023-07-20T03:11:56;6.15;;;1.30;;
74593;SDS011;63097;51.872;4.460;2023-07-20T03:14:21;2.25;;;1.27;;
74593;SDS011;63097;51.872;4.460;2023-07-20T03:16:46;3.90;;;1.40;;
74593;SDS011;63097;51.872;4.460;2023-07-20T03:19:12;6.40;;;1.40;;
74593;SDS011;63097;51.872;4.460;2023-07-20T03:21:37;8.05;;;1.40;;
74593;SDS011;63097;51.872;4.460;2023-07-20T03:24:02;3.15;;;1.42;;
74593;SDS011;63097;51.872;4.460;2023-07-20T03:26:28;4.97;;;1.35;;
74593;SDS011;63097;51.872;4.460;2023-07-20T03:28:53;3.28;;;1.15;;
74593;SDS011;63097;51.872;4.460;2023-07-20T03:31:18;3.30;;;1.10;;
74593;SDS011;63097;51.872;4.460;2023-07-20T03:33:44;1.00;;;0.93;;
74593;SDS011;63097;51.872;4.460;2023-07-20T03:36:09;2.85;;;1.52;;
74593;SDS011;63097;51.872;4.460;2023-07-20T03:38:34;4.13;;;1.80;;
74593;SDS011;63097;51.872;4.460;2023-07-20T03:41:00;3.75;;;1.30;;
74593;SDS011;63097;51.872;4.460;2023-07-20T03:43:26;1.73;;;1.10;;
74593;SDS011;63097;51.872;4.460;2023-07-20T03:45:53;3.75;;;1.15;;
74593;SDS011;63097;51.872;4.460;2023-07-20T03:48:19;3.75;;;1.10;;
74593;SDS011;63097;51.872;4.460;2023-07-20T03:50:47;5.45;;;1.30;;
74593;SDS011;63097;51.872;4.460;2023-07-20T03:53:13;4.65;;;1.00;;
74593;SDS011;63097;51.872;4.460;2023-07-20T03:55:39;5.28;;;1.42;;
74593;SDS011;63097;51.872;4.460;2023-07-20T03:58:05;4.35;;;1.27;;
74593;SDS011;63097;51.872;4.460;2023-07-20T04:00:31;4.28;;;1.10;;
74593;SDS011;63097;51.872;4.460;2023-07-20T04:02:56;6.57;;;1.15;;
74593;SDS011;63097;51.872;4.460;2023-07-20T04:05:22;9.70;;;1.85;;
74593;SDS011;63097;51.872;4.460;2023-07-20T04:07:47;2.20;;;1.20;;
74593;SDS011;63097;51.872;4.460;2023-07-20T04:10:12;2.83;;;1.05;;
74593;SDS011;63097;51.872;4.460;2023-07-20T04:12:38;3.25;;;1.10;;
74593;SDS011;63097;51.872;4.460;2023-07-20T04:15:03;2.45;;;1.00;;
74593;SDS011;63097;51.872;4.460;2023-07-20T04:17:29;4.10;;;1.35;;
74593;SDS011;63097;51.872;4.460;2023-07-20T04:19:55;1.42;;;0.95;;
74593;SDS011;63097;51.872;4.460;2023-07-20T04:22:20;4.85;;;1.17;;
74593;SDS011;63097;51.872;4.460;2023-07-20T04:24:45;2.60;;;1.00;;
74593;SDS011;63097;51.872;4.460;2023-07-20T04:27:10;6.60;;;1.15;;
74593;SDS011;63097;51.872;4.460;2023-07-20T04:29:36;3.50;;;1.33;;
74593;SDS011;63097;51.872;4.460;2023-07-20T04:32:01;1.85;;;0.98;;
74593;SDS011;63097;51.872;4.460;2023-07-20T04:34:26;2.47;;;1.10;;
74593;SDS011;63097;51.872;4.460;2023-07-20T04:36:52;2.45;;;1.00;;
74593;SDS011;63097;51.872;4.460;2023-07-20T04:39:17;1.60;;;1.30;;
74593;SDS011;63097;51.872;4.460;2023-07-20T04:41:42;5.30;;;1.20;;
74593;SDS011;63097;51.872;4.460;2023-07-20T04:44:08;2.00;;;1.17;;
74593;SDS011;63097;51.872;4.460;2023-07-20T04:46:33;5.07;;;1.10;;
74593;SDS011;63097;51.872;4.460;2023-07-20T04:48:58;3.42;;;1.42;;
74593;SDS011;63097;51.872;4.460;2023-07-20T04:51:24;2.17;;;1.02;;
74593;SDS011;63097;51.872;4.460;2023-07-20T04:53:49;8.82;;;1.20;;
74593;SDS011;63097;51.872;4.460;2023-07-20T04:56:14;3.78;;;1.20;;
74593;SDS011;63097;51.872;4.460;2023-07-20T04:58:40;1.08;;;0.88;;
74593;SDS011;63097;51.872;4.460;2023-07-20T05:01:05;3.15;;;1.00;;
74593;SDS011;63097;51.872;4.460;2023-07-20T05:03:31;3.63;;;0.82;;
74593;SDS011;63097;51.872;4.460;2023-07-20T05:05:56;3.75;;;1.15;;
74593;SDS011;63097;51.872;4.460;2023-07-20T05:08:22;2.15;;;1.10;;
74593;SDS011;63097;51.872;4.460;2023-07-20T05:10:48;1.45;;;0.98;;
74593;SDS011;63097;51.872;4.460;2023-07-20T05:13:13;4.40;;;0.77;;
74593;SDS011;63097;51.872;4.460;2023-07-20T05:15:39;2.58;;;0.80;;
74593;SDS011;63097;51.872;4.460;2023-07-20T05:18:04;1.83;;;0.80;;
74593;SDS011;63097;51.872;4.460;2023-07-20T05:20:30;1.50;;;0.90;;
74593;SDS011;63097;51.872;4.460;2023-07-20T05:22:55;2.38;;;1.00;;
74593;SDS011;63097;51.872;4.460;2023-07-20T05:25:20;3.50;;;0.93;;
74593;SDS011;63097;51.872;4.460;2023-07-20T05:27:46;1.40;;;0.80;;
74593;SDS011;63097;51.872;4.460;2023-07-20T05:30:11;3.55;;;1.10;;
74593;SDS011;63097;51.872;4.460;2023-07-20T05:32:37;1.73;;;0.80;;
74593;SDS011;63097;51.872;4.460;2023-07-20T05:35:02;2.50;;;0.80;;
74593;SDS011;63097;51.872;4.460;2023-07-20T05:37:27;1.65;;;1.08;;
74593;SDS011;63097;51.872;4.460;2023-07-20T05:39:53;0.95;;;0.73;;
74593;SDS011;63097;51.872;4.460;2023-07-20T05:42:18;1.63;;;0.80;;
74593;SDS011;63097;51.872;4.460;2023-07-20T05:44:43;2.15;;;1.02;;
74593;SDS011;63097;51.872;4.460;2023-07-20T05:47:09;3.33;;;0.80;;
74593;SDS011;63097;51.872;4.460;2023-07-20T05:49:34;2.30;;;1.30;;
74593;SDS011;63097;51.872;4.460;2023-07-20T05:52:00;3.45;;;0.90;;
74593;SDS011;63097;51.872;4.460;2023-07-20T05:54:25;3.13;;;1.20;;
74593;SDS011;63097;51.872;4.460;2023-07-20T05:56:51;1.35;;;0.90;;
74593;SDS011;63097;51.872;4.460;2023-07-20T05:59:17;2.03;;;0.80;;
74593;SDS011;63097;51.872;4.460;2023-07-20T06:01:43;3.88;;;0.90;;
74593;SDS011;63097;51.872;4.460;2023-07-20T06:04:08;1.58;;;0.77;;
74593;SDS011;63097;51.872;4.460;2023-07-20T06:06:34;2.45;;;0.65;;
74593;SDS011;63097;51.872;4.460;2023-07-20T06:09:00;2.03;;;0.60;;
74593;SDS011;63097;51.872;4.460;2023-07-20T06:11:25;7.30;;;0.75;;
74593;SDS011;63097;51.872;4.460;2023-07-20T06:13:51;5.75;;;1.08;;
74593;SDS011;63097;51.872;4.460;2023-07-20T06:16:16;3.53;;;0.77;;
74593;SDS011;63097;51.872;4.460;2023-07-20T06:18:41;1.20;;;0.60;;
74593;SDS011;63097;51.872;4.460;2023-07-20T06:21:06;3.60;;;0.73;;
74593;SDS011;63097;51.872;4.460;2023-07-20T06:23:32;1.70;;;0.60;;
74593;SDS011;63097;51.872;4.460;2023-07-20T06:25:57;2.38;;;0.52;;
74593;SDS011;63097;51.872;4.460;2023-07-20T06:28:22;5.90;;;0.60;;
74593;SDS011;63097;51.872;4.460;2023-07-20T06:30:48;1.15;;;0.55;;
74593;SDS011;63097;51.872;4.460;2023-07-20T06:33:13;3.35;;;0.63;;
74593;SDS011;63097;51.872;4.460;2023-07-20T06:35:41;4.38;;;0.60;;
74593;SDS011;63097;51.872;4.460;2023-07-20T06:38:06;7.72;;;0.80;;
74593;SDS011;63097;51.872;4.460;2023-07-20T06:40:32;7.95;;;0.90;;
74593;SDS011;63097;51.872;4.460;2023-07-20T06:42:57;2.05;;;0.70;;
74593;SDS011;63097;51.872;4.460;2023-07-20T06:45:22;8.65;;;0.80;;
74593;SDS011;63097;51.872;4.460;2023-07-20T06:47:48;1.08;;;0.60;;
74593;SDS011;63097;51.872;4.460;2023-07-20T06:50:13;3.00;;;0.90;;
74593;SDS011;63097;51.872;4.460;2023-07-20T06:52:38;1.38;;;0.82;;
74593;SDS011;63097;51.872;4.460;2023-07-20T06:55:04;4.90;;;1.05;;
74593;SDS011;63097;51.872;4.460;2023-07-20T06:57:29;4.00;;;0.70;;
74593;SDS011;63097;51.872;4.460;2023-07-20T06:59:55;3.83;;;0.90;;
74593;SDS011;63097;51.872;4.460;2023-07-20T07:02:20;2.97;;;0.90;;
74593;SDS011;63097;51.872;4.460;2023-07-20T07:04:45;4.10;;;0.75;;
74593;SDS011;63097;51.872;4.460;2023-07-20T07:07:11;3.63;;;0.70;;
74593;SDS011;63097;51.872;4.460;2023-07-20T07:09:36;1.90;;;0.60;;
74593;SDS011;63097;51.872;4.460;2023-07-20T07:12:01;4.43;;;0.60;;
74593;SDS011;63097;51.872;4.460;2023-07-20T07:14:27;1.42;;;0.60;;
74593;SDS011;63097;51.872;4.460;2023-07-20T07:16:52;9.75;;;0.90;;
74593;SDS011;63097;51.872;4.460;2023-07-20T07:19:17;3.83;;;0.82;;
74593;SDS011;63097;51.872;4.460;2023-07-20T07:21:43;2.42;;;0.80;;
74593;SDS011;63097;51.872;4.460;2023-07-20T07:24:08;4.18;;;0.80;;
74593;SDS011;63097;51.872;4.460;2023-07-20T07:26:33;3.92;;;0.77;;
74593;SDS011;63097;51.872;4.460;2023-07-20T07:28:59;4.10;;;0.93;;
74593;SDS011;63097;51.872;4.460;2023-07-20T07:31:24;1.25;;;0.80;;
74593;SDS011;63097;51.872;4.460;2023-07-20T07:33:50;2.80;;;0.90;;
74593;SDS011;63097;51.872;4.460;2023-07-20T07:36:15;5.55;;;0.90;;
74593;SDS011;63097;51.872;4.460;2023-07-20T07:38:40;3.17;;;0.73;;
74593;SDS011;63097;51.872;4.460;2023-07-20T07:41:06;1.83;;;0.70;;
74593;SDS011;63097;51.872;4.460;2023-07-20T07:43:31;3.63;;;0.82;;
74593;SDS011;63097;51.872;4.460;2023-07-20T07:45:56;1.02;;;0.60;;
74593;SDS011;63097;51.872;4.460;2023-07-20T07:48:22;1.48;;;0.40;;
74593;SDS011;63097;51.872;4.460;2023-07-20T07:50:47;10.40;;;0.70;;
74593;SDS011;63097;51.872;4.460;2023-07-20T07:53:13;11.18;;;1.10;;
74593;SDS011;63097;51.872;4.460;2023-07-20T07:55:38;2.92;;;0.70;;
74593;SDS011;63097;51.872;4.460;2023-07-20T07:58:03;2.85;;;0.70;;
74593;SDS011;63097;51.872;4.460;2023-07-20T08:00:29;3.72;;;0.70;;
74593;SDS011;63097;51.872;4.460;2023-07-20T08:02:54;4.80;;;0.70;;
74593;SDS011;63097;51.872;4.460;2023-07-20T08:05:19;1.02;;;0.50;;
74593;SDS011;63097;51.872;4.460;2023-07-20T08:07:45;1.67;;;0.70;;
74593;SDS011;63097;51.872;4.460;2023-07-20T08:10:10;2.85;;;0.80;;
74593;SDS011;63097;51.872;4.460;2023-07-20T08:12:36;1.00;;;0.52;;
74593;SDS011;63097;51.872;4.460;2023-07-20T08:15:01;2.15;;;0.77;;
74593;SDS011;63097;51.872;4.460;2023-07-20T08:17:26;2.47;;;0.70;;
74593;SDS011;63097;51.872;4.460;2023-07-20T08:19:52;2.40;;;0.60;;
74593;SDS011;63097;51.872;4.460;2023-07-20T08:22:17;4.20;;;0.70;;
74593;SDS011;63097;51.872;4.460;2023-07-20T08:24:43;2.80;;;0.60;;
74593;SDS011;63097;51.872;4.460;2023-07-20T08:27:08;2.90;;;0.68;;
74593;SDS011;63097;51.872;4.460;2023-07-20T08:29:35;2.80;;;0.90;;
74593;SDS011;63097;51.872;4.460;2023-07-20T08:32:00;3.63;;;0.68;;
74593;SDS011;63097;51.872;4.460;2023-07-20T08:34:26;3.10;;;0.90;;
74593;SDS011;63097;51.872;4.460;2023-07-20T08:36:52;3.08;;;0.50;;
74593;SDS011;63097;51.872;4.460;2023-07-20T08:39:17;7.50;;;0.70;;
74593;SDS011;63097;51.872;4.460;2023-07-20T08:41:43;2.25;;;0.80;;
74593;SDS011;63097;51.872;4.460;2023-07-20T08:44:08;1.17;;;0.90;;
74593;SDS011;63097;51.872;4.460;2023-07-20T08:46:35;4.40;;;1.08;;
74593;SDS011;63097;51.872;4.460;2023-07-20T08:49:03;1.63;;;0.90;;
74593;SDS011;63097;51.872;4.460;2023-07-20T08:51:29;3.05;;;0.80;;
74593;SDS011;63097;51.872;4.460;2023-07-20T08:53:55;4.75;;;1.02;;
74593;SDS011;63097;51.872;4.460;2023-07-20T08:56:21;5.53;;;1.00;;
74593;SDS011;63097;51.872;4.460;2023-07-20T08:58:49;7.03;;;0.95;;
74593;SDS011;63097;51.872;4.460;2023-07-20T09:01:16;3.10;;;0.77;;
74593;SDS011;63097;51.872;4.460;2023-07-20T09:03:42;7.30;;;0.80;;
74593;SDS011;63097;51.872;4.460;2023-07-20T09:06:10;4.68;;;1.30;;
74593;SDS011;63097;51.872;4.460;2023-07-20T09:08:39;3.80;;;0.75;;
74593;SDS011;63097;51.872;4.460;2023-07-20T09:11:05;2.05;;;1.00;;
74593;SDS011;63097;51.872;4.460;2023-07-20T09:13:32;2.03;;;0.80;;
74593;SDS011;63097;51.872;4.460;2023-07-20T09:15:58;2.58;;;0.82;;
74593;SDS011;63097;51.872;4.460;2023-07-20T09:18:29;1.52;;;0.60;;
74593;SDS011;63097;51.872;4.460;2023-07-20T09:21:03;6.40;;;1.10;;
74593;SDS011;63097;51.872;4.460;2023-07-20T09:23:33;4.25;;;1.23;;
74593;SDS011;63097;51.872;4.460;2023-07-20T09:26:11;4.30;;;1.30;;
74593;SDS011;63097;51.872;4.460;2023-07-20T09:28:42;6.25;;;1.02;;
74593;SDS011;63097;51.872;4.460;2023-07-20T09:31:15;2.10;;;1.00;;
74593;SDS011;63097;51.872;4.460;2023-07-20T09:33:43;1.45;;;0.77;;
74593;SDS011;63097;51.872;4.460;2023-07-20T09:36:09;3.13;;;1.00;;
74593;SDS011;63097;51.872;4.460;2023-07-20T09:38:35;1.65;;;0.70;;
74593;SDS011;63097;51.872;4.460;2023-07-20T09:41:00;7.80;;;1.00;;
74593;SDS011;63097;51.872;4.460;2023-07-20T09:43:28;3.00;;;0.90;;
74593;SDS011;63097;51.872;4.460;2023-07-20T09:45:57;7.68;;;0.80;;
74593;SDS011;63097;51.872;4.460;2023-07-20T09:48:23;5.75;;;0.70;;
74593;SDS011;63097;51.872;4.460;2023-07-20T09:50:50;7.35;;;0.95;;
74593;SDS011;63097;51.872;4.460;2023-07-20T09:53:16;3.65;;;0.80;;
74593;SDS011;63097;51.872;4.460;2023-07-20T09:55:43;5.38;;;0.70;;
74593;SDS011;63097;51.872;4.460;2023-07-20T09:58:09;8.13;;;1.20;;
74593;SDS011;63097;51.872;4.460;2023-07-20T10:00:38;3.85;;;1.00;;
74593;SDS011;63097;51.872;4.460;2023-07-20T10:03:06;2.85;;;1.10;;
74593;SDS011;63097;51.872;4.460;2023-07-20T10:05:32;2.45;;;0.60;;
74593;SDS011;63097;51.872;4.460;2023-07-20T10:08:01;4.03;;;0.85;;
74593;SDS011;63097;51.872;4.460;2023-07-20T10:10:28;4.72;;;0.98;;
74593;SDS011;63097;51.872;4.460;2023-07-20T10:12:56;1.73;;;0.70;;
74593;SDS011;63097;51.872;4.460;2023-07-20T10:15:28;3.63;;;1.05;;
74593;SDS011;63097;51.872;4.460;2023-07-20T10:20:42;1.92;;;0.77;;
74593;SDS011;63097;51.872;4.460;2023-07-20T10:23:09;1.45;;;0.70;;
74593;SDS011;63097;51.872;4.460;2023-07-20T10:25:35;3.10;;;0.90;;
74593;SDS011;63097;51.872;4.460;2023-07-20T10:28:01;1.83;;;0.90;;
74593;SDS011;63097;51.872;4.460;2023-07-20T10:30:27;6.60;;;0.88;;
74593;SDS011;63097;51.872;4.460;2023-07-20T10:32:52;2.35;;;0.88;;
74593;SDS011;63097;51.872;4.460;2023-07-20T10:35:18;4.85;;;1.23;;
74593;SDS011;63097;51.872;4.460;2023-07-20T10:37:47;7.25;;;1.10;;
74593;SDS011;63097;51.872;4.460;2023-07-20T10:40:32;4.78;;;1.02;;
74593;SDS011;63097;51.872;4.460;2023-07-20T10:43:03;2.10;;;0.80;;
74593;SDS011;63097;51.872;4.460;2023-07-20T10:45:33;6.32;;;1.10;;
74593;SDS011;63097;51.872;4.460;2023-07-20T10:47:59;2.65;;;0.90;;
74593;SDS011;63097;51.872;4.460;2023-07-20T10:50:28;3.53;;;0.80;;
74593;SDS011;63097;51.872;4.460;2023-07-20T10:53:13;2.88;;;0.90;;
74593;SDS011;63097;51.872;4.460;2023-07-20T10:55:40;4.35;;;1.00;;
74593;SDS011;63097;51.872;4.460;2023-07-20T10:58:06;8.88;;;1.50;;
74593;SDS011;63097;51.872;4.460;2023-07-20T11:00:32;7.15;;;1.05;;
74593;SDS011;63097;51.872;4.460;2023-07-20T11:02:58;2.08;;;0.90;;
74593;SDS011;63097;51.872;4.460;2023-07-20T11:08:06;4.63;;;0.90;;
74593;SDS011;63097;51.872;4.460;2023-07-20T11:10:34;5.17;;;1.30;;
74593;SDS011;63097;51.872;4.460;2023-07-20T11:18:21;3.95;;;0.90;;
74593;SDS011;63097;51.872;4.460;2023-07-20T11:20:50;4.57;;;1.10;;
74593;SDS011;63097;51.872;4.460;2023-07-20T11:23:15;3.90;;;0.73;;
74593;SDS011;63097;51.872;4.460;2023-07-20T11:25:41;1.02;;;0.70;;
74593;SDS011;63097;51.872;4.460;2023-07-20T11:28:07;3.53;;;0.80;;
74593;SDS011;63097;51.872;4.460;2023-07-20T11:30:33;1.10;;;0.75;;
74593;SDS011;63097;51.872;4.460;2023-07-20T11:32:58;10.40;;;0.80;;
74593;SDS011;63097;51.872;4.460;2023-07-20T11:35:24;2.67;;;0.88;;
74593;SDS011;63097;51.872;4.460;2023-07-20T11:37:49;2.53;;;1.08;;
74593;SDS011;63097;51.872;4.460;2023-07-20T11:40:14;3.25;;;0.80;;
74593;SDS011;63097;51.872;4.460;2023-07-20T11:42:40;6.40;;;0.80;;
74593;SDS011;63097;51.872;4.460;2023-07-20T11:45:06;3.05;;;0.60;;
74593;SDS011;63097;51.872;4.460;2023-07-20T11:47:31;6.00;;;0.80;;
74593;SDS011;63097;51.872;4.460;2023-07-20T11:49:57;2.35;;;0.70;;
74593;SDS011;63097;51.872;4.460;2023-07-20T11:52:28;3.80;;;0.68;;
74593;SDS011;63097;51.872;4.460;2023-07-20T11:54:53;2.78;;;0.93;;
74593;SDS011;63097;51.872;4.460;2023-07-20T11:57:19;5.22;;;1.00;;
74593;SDS011;63097;51.872;4.460;2023-07-20T11:59:58;7.95;;;0.80;;
74593;SDS011;63097;51.872;4.460;2023-07-20T12:02:29;3.55;;;0.68;;
74593;SDS011;63097;51.872;4.460;2023-07-20T12:04:54;4.00;;;1.00;;
74593;SDS011;63097;51.872;4.460;2023-07-20T12:07:21;2.42;;;0.80;;
74593;SDS011;63097;51.872;4.460;2023-07-20T12:10:03;2.55;;;0.80;;
74593;SDS011;63097;51.872;4.460;2023-07-20T12:12:32;2.60;;;0.73;;
74593;SDS011;63097;51.872;4.460;2023-07-20T12:15:23;2.35;;;0.88;;
74593;SDS011;63097;51.872;4.460;2023-07-20T12:17:51;4.05;;;0.85;;
74593;SDS011;63097;51.872;4.460;2023-07-20T12:20:30;3.05;;;0.98;;
74593;SDS011;63097;51.872;4.460;2023-07-20T12:23:01;5.13;;;0.73;;
74593;SDS011;63097;51.872;4.460;2023-07-20T12:25:46;3.03;;;0.90;;
74593;SDS011;63097;51.872;4.460;2023-07-20T12:28:12;1.55;;;0.85;;
74593;SDS011;63097;51.872;4.460;2023-07-20T12:30:39;3.22;;;1.00;;
74593;SDS011;63097;51.872;4.460;2023-07-20T12:33:05;2.33;;;0.80;;
74593;SDS011;63097;51.872;4.460;2023-07-20T12:35:31;1.85;;;0.80;;
74593;SDS011;63097;51.872;4.460;2023-07-20T12:37:57;9.15;;;1.00;;
74593;SDS011;63097;51.872;4.460;2023-07-20T12:40:23;3.03;;;1.08;;
74593;SDS011;63097;51.872;4.460;2023-07-20T12:42:48;10.63;;;0.98;;
74593;SDS011;63097;51.872;4.460;2023-07-20T12:45:14;2.85;;;0.80;;
74593;SDS011;63097;51.872;4.460;2023-07-20T12:47:40;1.23;;;1.00;;
74593;SDS011;63097;51.872;4.460;2023-07-20T12:50:06;2.97;;;0.80;;
74593;SDS011;63097;51.872;4.460;2023-07-20T12:52:31;5.07;;;1.00;;
74593;SDS011;63097;51.872;4.460;2023-07-20T12:55:00;3.50;;;0.77;;
74593;SDS011;63097;51.872;4.460;2023-07-20T12:57:26;7.00;;;1.27;;
74593;SDS011;63097;51.872;4.460;2023-07-20T12:59:51;3.53;;;0.90;;
74593;SDS011;63097;51.872;4.460;2023-07-20T13:02:17;1.40;;;0.77;;
74593;SDS011;63097;51.872;4.460;2023-07-20T13:04:42;3.33;;;0.90;;
74593;SDS011;63097;51.872;4.460;2023-07-20T13:07:09;3.17;;;0.85;;
74593;SDS011;63097;51.872;4.460;2023-07-20T13:09:35;7.70;;;0.80;;
74593;SDS011;63097;51.872;4.460;2023-07-20T13:12:00;8.80;;;0.70;;
74593;SDS011;63097;51.872;4.460;2023-07-20T13:14:26;3.70;;;1.00;;
74593;SDS011;63097;51.872;4.460;2023-07-20T13:16:51;5.83;;;0.97;;
74593;SDS011;63097;51.872;4.460;2023-07-20T13:19:16;5.97;;;0.80;;
74593;SDS011;63097;51.872;4.460;2023-07-20T13:21:41;3.07;;;0.80;;
74593;SDS011;63097;51.872;4.460;2023-07-20T13:24:08;4.20;;;0.60;;
74593;SDS011;63097;51.872;4.460;2023-07-20T13:26:33;2.45;;;0.80;;
74593;SDS011;63097;51.872;4.460;2023-07-20T13:28:58;1.67;;;0.60;;
74593;SDS011;63097;51.872;4.460;2023-07-20T13:31:23;3.57;;;0.70;;
74593;SDS011;63097;51.872;4.460;2023-07-20T13:33:49;3.67;;;0.83;;
74593;SDS011;63097;51.872;4.460;2023-07-20T13:36:14;1.50;;;0.80;;
74593;SDS011;63097;51.872;4.460;2023-07-20T13:38:39;4.43;;;0.80;;
74593;SDS011;63097;51.872;4.460;2023-07-20T13:41:04;1.03;;;0.60;;
74593;SDS011;63097;51.872;4.460;2023-07-20T13:43:30;2.83;;;0.80;;
74593;SDS011;63097;51.872;4.460;2023-07-20T13:45:55;2.60;;;0.70;;
74593;SDS011;63097;51.872;4.460;2023-07-20T13:48:20;2.63;;;0.60;;
74593;SDS011;63097;51.872;4.460;2023-07-20T13:50:46;3.65;;;0.68;;
74593;SDS011;63097;51.872;4.460;2023-07-20T13:53:11;1.30;;;0.60;;
74593;SDS011;63097;51.872;4.460;2023-07-20T13:55:36;3.63;;;0.80;;
74593;SDS011;63097;51.872;4.460;2023-07-20T13:58:02;2.45;;;0.90;;
74593;SDS011;63097;51.872;4.460;2023-07-20T14:00:27;12.52;;;0.90;;
74593;SDS011;63097;51.872;4.460;2023-07-20T14:02:53;6.65;;;0.80;;
74593;SDS011;63097;51.872;4.460;2023-07-20T14:05:18;2.92;;;0.70;;
74593;SDS011;63097;51.872;4.460;2023-07-20T14:07:43;3.22;;;0.80;;
74593;SDS011;63097;51.872;4.460;2023-07-20T14:10:09;1.17;;;0.50;;
74593;SDS011;63097;51.872;4.460;2023-07-20T14:12:34;2.50;;;0.53;;
74593;SDS011;63097;51.872;4.460;2023-07-20T14:14:59;5.00;;;0.70;;
74593;SDS011;63097;51.872;4.460;2023-07-20T14:17:25;1.80;;;0.77;;
74593;SDS011;63097;51.872;4.460;2023-07-20T14:19:50;3.90;;;0.65;;
74593;SDS011;63097;51.872;4.460;2023-07-20T14:22:15;1.27;;;0.60;;
74593;SDS011;63097;51.872;4.460;2023-07-20T14:24:41;3.33;;;0.93;;
74593;SDS011;63097;51.872;4.460;2023-07-20T14:27:06;2.80;;;0.60;;
74593;SDS011;63097;51.872;4.460;2023-07-20T14:29:31;1.27;;;0.60;;
74593;SDS011;63097;51.872;4.460;2023-07-20T14:31:57;2.30;;;0.80;;
74593;SDS011;63097;51.872;4.460;2023-07-20T14:34:23;2.58;;;0.90;;
74593;SDS011;63097;51.872;4.460;2023-07-20T14:36:48;3.80;;;0.60;;
74593;SDS011;63097;51.872;4.460;2023-07-20T14:39:13;5.23;;;0.80;;
74593;SDS011;63097;51.872;4.460;2023-07-20T14:41:39;4.20;;;0.50;;
74593;SDS011;63097;51.872;4.460;2023-07-20T14:44:04;4.63;;;0.60;;
74593;SDS011;63097;51.872;4.460;2023-07-20T14:46:29;1.37;;;0.60;;
74593;SDS011;63097;51.872;4.460;2023-07-20T14:48:55;3.77;;;0.70;;
74593;SDS011;63097;51.872;4.460;2023-07-20T14:51:20;3.35;;;0.75;;
74593;SDS011;63097;51.872;4.460;2023-07-20T14:53:46;2.27;;;0.60;;
74593;SDS011;63097;51.872;4.460;2023-07-20T14:56:11;7.03;;;0.63;;
74593;SDS011;63097;51.872;4.460;2023-07-20T14:58:36;4.57;;;0.70;;
74593;SDS011;63097;51.872;4.460;2023-07-20T15:01:02;3.20;;;0.93;;
74593;SDS011;63097;51.872;4.460;2023-07-20T15:03:28;1.90;;;0.63;;
74593;SDS011;63097;51.872;4.460;2023-07-20T15:05:53;1.70;;;0.50;;